Flugplatz Dresden

Bericht für EDDC

vom 20.09. um 12:50 UTC

Wind 6 kt aus 30°

Sichtweite 10 km oder mehr

gute Sicht, keine Wolken < 5000 ft, keine CB, keine Wettererscheinungen (CAVOK)

Temperatur 23.0°C

Taupunkt 8.0°C

Luftfeuchtigkeit 38%

Luftdruck 1017 hPa

keine wesentliche Wetteränderung innerhalb den nächsten 2 Stunden zu erwarten

EDDC 201250Z 03006KT 360V110 CAVOK 23/08 Q1017 NOSIG

Prognose für EDDC

vom 20.09. um 11:00 UTC

Zwischen 12:00 UTC und 18:00 UTC

Wind 8 kt aus 80°

Sichtweite 10 km oder mehr

keine signifikanten Wettererscheinungen

keine Wolken


Zwischen 18:00 und 21:00 UTC übergehend zu

variable Windrichtung mit 3 kt

Sichtweite 10 km oder mehr

keine signifikanten Wettererscheinungen

keine Wolken


Am 21.09. zwischen 08:00 und 11:00 UTC übergehend zu

Wind 6 kt aus 140°

Sichtweite 10 km oder mehr

keine signifikanten Wettererscheinungen

keine Wolken

TAF EDDC 201100Z 2012/2112 08008KT CAVOK BECMG 2018/2021 VRB03KT BECMG 2108/2111 14006KT
Impressum